Latest Coastal Weather Observations for Mandora

IDW60701

Issued at 8:23 am WST Monday 23 January 2017 (issued every 10 minutes, with the page automatically refreshed every 10 minutes)

About coastal observations | Map of coastal stations | Coastal observations for WA | Marine services | Other Formats
Station Details ID: 004019 Name: MANDORA Lat: -19.74 Lon: 120.84 Height: 7.5 m
Data from the previous 72 hours. | See also: Recent months at Mandora
Date/Time
WST
Temp
°C
Wind Pressure Rain since
9am
mm
Weather Cloud Vis
km
Sea
Height
m
Swell
Dir  Spd
kts
Gust
kts
hPa Trend Height
m
Period
s
Dir
23/08:00am 29.9 WSW 9 12 1007.4 - 0.0 - - - - - - -
23/07:30am 28.9 WSW 9 11 1007.2 - 0.0 - - - - - - -
23/07:00am 28.0 WSW 8 12 1006.9 - 0.0 - - - - - - -
23/06:30am 27.5 WSW 7 11 1006.6 - 0.0 - - - - - - -
23/06:00am 27.1 SW 7 9 1006.3 - 0.0 - - - - - - -
23/05:30am 27.3 WSW 7 11 1006.2 - 0.0 - - - - - - -
23/05:00am 27.8 W 8 11 1006.2 - 0.0 - - - - - - -
23/04:30am 27.7 W 8 11 1006.2 - 0.0 - - - - - - -
23/04:00am 27.7 W 8 12 1006.3 - 0.0 - - - - - - -
23/03:30am 27.6 W 8 11 1006.2 - 0.0 - - - - - - -
23/03:00am 27.5 WNW 9 13 1006.2 - 0.0 - - - - - - -
23/02:30am 27.7 WNW 9 13 1006.5 - 0.0 - - - - - - -
23/02:00am 27.6 WNW 9 13 1006.6 - 0.0 - - - - - - -
23/01:30am 27.4 WNW 8 11 1006.8 - 0.0 - - - - - - -
23/01:00am 27.5 WNW 8 13 1006.9 - 0.0 - - - - - - -
23/12:30am 27.7 WNW 8 14 1006.9 - 0.0 - - - - - - -
23/12:00am 27.6 WNW 7 11 1007.1 - 0.0 - - - - - - -
 
Date/Time
WST
Temp
°C
Wind Pressure Rain since
9am
mm
Weather Cloud Vis
km
Sea
Height
m
Swell
Dir  Spd
kts
Gust
kts
hPa Trend Height
m
Period
s
Dir
22/11:30pm 27.5 W 7 10 1007.5 - 0.0 - - - - - - -
22/11:00pm 27.4 WNW 7 10 1007.8 - 0.0 - - - - - - -
22/10:30pm 27.3 WNW 7 10 1007.8 - 0.0 - - - - - - -
22/10:00pm 27.3 WNW 7 11 1007.8 - 0.0 - - - - - - -
22/09:30pm 27.4 WNW 7 10 1007.6 - 0.0 - - - - - - -
22/09:00pm 27.5 WNW 7 11 1007.3 - 0.0 - - - - - - -
22/08:30pm 27.6 WNW 7 12 1007.1 - 0.0 - - - - - - -
22/08:00pm 27.8 WNW 8 11 1006.9 - 0.0 - - - - - - -
22/07:30pm 28.0 WNW 8 12 1006.6 - 0.0 - - - - - - -
22/07:00pm 28.2 NW 8 13 1006.3 - 0.0 - - - - - - -
22/06:30pm 28.6 WNW 10 14 1006.0 - 0.0 - - - - - - -
22/06:00pm 29.4 NW 10 15 1005.8 - 0.0 - - - - - - -
22/05:30pm 30.0 NW 10 16 1005.7 - 0.0 - - - - - - -
22/05:00pm 30.4 NW 11 19 1005.7 - 0.0 - - - - - - -
22/04:30pm 30.2 NW 13 19 1005.8 - 0.0 - - - - - - -
22/04:00pm 30.9 WNW 12 18 1005.9 - 0.0 - - - - - - -
22/03:30pm 31.6 NW 12 17 1006.1 - 0.0 - - - - - - -
22/03:00pm 31.1 NW 12 18 1006.2 - 0.0 - - - - - - -
22/02:30pm 31.0 NW 11 17 1006.5 - 0.0 - - - - - - -
22/02:00pm 31.6 NW 11 17 1006.6 - 0.0 - - - - - - -
22/01:30pm 31.7 NW 12 18 1006.8 - 0.0 - - - - - - -
22/01:00pm 31.8 WNW 11 18 1007.2 - 0.0 - - - - - - -
22/12:30pm 32.0 WNW 10 16 1007.5 - 0.0 - - - - - - -
22/12:00pm 32.2 WNW 11 16 1007.7 - 0.0 - - - - - - -
22/11:30am 31.1 WNW 10 14 1008.0 - 0.0 - - - - - - -
22/11:00am 30.8 WNW 10 16 1008.4 - 0.0 - - - - - - -
22/10:30am 30.7 WNW 10 15 1008.4 - 0.0 - - - - - - -
22/10:00am 30.5 WNW 9 15 1008.5 - 0.0 - - - - - - -
22/09:30am 29.6 WNW 7 12 1008.6 - 0.0 - - - - - - -
22/09:00am 28.0 WSW 6 7 1008.8 - 0.0 - - - - - - -
22/08:30am 28.1 W 7 11 1008.8 - 0.0 - - - - - - -
22/08:00am 27.4 WSW 6 8 1008.8 - 0.0 - - - - - - -
22/07:30am 28.0 SW 6 8 1008.8 - 0.0 - - - - - - -
22/07:00am 27.8 WSW 6 9 1008.6 - 0.0 - - - - - - -
22/06:30am 26.9 SW 5 8 1008.5 - 0.0 - - - - - - -
22/06:00am 26.6 SW 2 5 1008.2 - 0.0 - - - - - - -
22/05:30am 27.0 W 6 9 1007.7 - 0.0 - - - - - - -
22/05:00am 26.6 WNW 6 11 1007.5 - 0.0 - - - - - - -
22/04:30am 26.5 WNW 6 8 1007.3 - 0.0 - - - - - - -
22/04:00am 26.9 WNW 6 9 1007.1 - 0.0 - - - - - - -
22/03:30am 27.2 WNW 8 12 1007.1 - 0.0 - - - - - - -
22/03:00am 27.4 WNW 7 10 1007.1 - 0.0 - - - - - - -
22/02:30am 27.4 WNW 8 12 1007.0 - 0.0 - - - - - - -
22/02:00am 27.4 WNW 9 16 1007.0 - 0.0 - - - - - - -
22/01:30am 27.2 WNW 8 12 1007.0 - 0.0 - - - - - - -
22/01:00am 27.1 WNW 8 12 1007.2 - 0.0 - - - - - - -
22/12:30am 27.3 WNW 8 12 1007.5 - 0.0 - - - - - - -
22/12:00am 27.5 WNW 8 11 1007.9 - 0.0 - - - - - - -
 
Date/Time
WST
Temp
°C
Wind Pressure Rain since
9am
mm
Weather Cloud Vis
km
Sea
Height
m
Swell
Dir  Spd
kts
Gust
kts
hPa Trend Height
m
Period
s
Dir
21/11:30pm 27.5 WNW 7 11 1008.2 - 0.0 - - - - - - -
21/11:00pm 27.6 WNW 7 11 1008.3 - 0.0 - - - - - - -
21/10:30pm 27.8 WNW 8 12 1008.6 - 0.0 - - - - - - -
21/10:00pm 27.9 WNW 8 13 1008.5 - 0.0 - - - - - - -
21/09:30pm 27.9 WNW 8 13 1008.3 - 0.0 - - - - - - -
21/09:00pm 28.0 WNW 8 11 1007.9 - 0.0 - - - - - - -
21/08:30pm 27.9 WNW 8 12 1007.5 - 0.0 - - - - - - -
21/08:00pm 27.8 WNW 7 11 1007.1 - 0.0 - - - - - - -
21/07:30pm 27.7 WNW 8 14 1006.8 - 0.0 - - - - - - -
21/07:00pm 27.8 WNW 8 13 1006.5 - 0.0 - - - - - - -
21/06:30pm 28.2 WNW 9 13 1006.1 - 0.0 - - - - - - -
21/06:00pm 29.1 WNW 9 15 1005.8 - 0.0 - - - - - - -
21/05:30pm 29.6 WNW 11 18 1005.7 - 0.0 - - - - - - -
21/05:00pm 29.8 WNW 11 18 1005.5 - 0.0 - - - - - - -
21/04:30pm 30.0 NW 13 18 1005.1 - 0.0 - - - - - - -
21/04:00pm 30.3 WNW 12 19 1005.0 - 0.0 - - - - - - -
21/03:30pm 30.5 WNW 14 21 1004.9 - 0.0 - - - - - - -
21/03:00pm 30.3 WNW 13 19 1005.0 - 0.0 - - - - - - -
21/02:30pm 30.7 NW 14 21 1005.3 - 0.0 - - - - - - -
21/02:00pm 31.3 WNW 13 23 1005.4 - 0.0 - - - - - - -
21/01:30pm 31.2 WNW 12 20 1005.7 - 0.0 - - - - - - -
21/01:00pm 31.1 WNW 14 20 1005.9 - 0.0 - - - - - - -
21/12:30pm 30.0 WNW 12 19 1006.1 - 0.0 - - - - - - -
21/12:00pm 30.1 WNW 13 20 1006.2 - 0.0 - - - - - - -
21/11:30am 29.7 WNW 12 18 1006.2 - 0.0 - - - - - - -
21/11:00am 28.8 WNW 9 15 1006.5 - 0.0 - - - - - - -
21/10:30am 28.0 WNW 10 17 1006.7 - 0.0 - - - - - - -
21/10:00am 29.1 WNW 9 16 1006.8 - 0.0 - - - - - - -
21/09:30am 29.6 W 9 14 1006.7 - 0.0 - - - - - - -
21/09:00am 28.9 W 4 10 1006.7 - 3.8 - - - - - - -
21/08:30am 27.8 WSW 4 6 1006.6 - 3.8 - - - - - - -
21/08:00am 27.5 WSW 6 9 1006.4 - 3.8 - - - - - - -
21/07:30am 26.8 WSW 5 8 1006.3 - 3.8 - - - - - - -
21/07:00am 26.3 SW 5 7 1006.3 - 3.8 - - - - - - -
21/06:30am 25.4 WSW 5 6 1006.0 - 3.8 - - - - - - -
21/06:00am 25.2 SW 5 7 1005.7 - 3.8 - - - - - - -
21/05:30am 25.2 W 7 11 1005.1 - 3.8 - - - - - - -
21/05:00am 25.3 W 7 10 1004.6 - 3.8 - - - - - - -
21/04:30am 25.2 NW 6 8 1004.3 - 3.8 - - - - - - -
21/04:00am 25.1 NW 9 12 1004.3 - 3.8 - - - - - - -
21/03:30am 24.9 NW 8 13 1004.8 - 3.8 - - - - - - -
21/03:00am 25.0 WNW 8 11 1005.2 - 3.8 Rain - - - - - -
21/02:30am 24.7 WNW 6 9 1005.3 - 3.6 - - - - - - -
21/02:00am 25.3 WNW 7 10 1005.3 - 3.6 - - - - - - -
21/01:30am 25.6 WSW 9 14 1005.5 - 3.0 - - - - - - -
21/01:00am 26.8 WNW 7 10 1005.5 - 1.6 - - - - - - -
21/12:30am 27.3 W 7 11 1005.7 - 1.4 - - - - - - -
21/12:00am 27.1 W 9 12 1005.6 - 1.4 - - - - - - -
 
Date/Time
WST
Temp
°C
Wind Pressure Rain since
9am
mm
Weather Cloud Vis
km
Sea
Height
m
Swell
Dir  Spd
kts
Gust
kts
hPa Trend Height
m
Period
s
Dir
20/11:30pm 26.7 WNW 9 15 1005.7 - 1.4 - - - - - - -
20/11:00pm 26.7 WNW 8 12 1006.0 - 1.4 - - - - - - -
20/10:30pm 27.7 WNW 7 11 1006.0 - 1.2 - - - - - - -
20/10:00pm 27.9 WNW 9 12 1005.9 - 1.2 - - - - - - -
20/09:30pm 27.9 WNW 9 13 1005.7 - 1.2 - - - - - - -
20/09:00pm 28.0 WNW 9 14 1005.5 - 1.2 - - - - - - -
20/08:30pm 28.0 WNW 9 13 1005.4 - 1.2 - - - - - - -
20/08:00pm 28.0 WNW 10 15 1004.8 - 1.2 - - - - - - -
20/07:30pm 27.8 WNW 7 11 1004.3 - 1.2 - - - - - - -
20/07:00pm 28.0 WNW 10 15 1003.6 - 1.2 - - - - - - -
20/06:30pm 28.0 WNW 8 12 1003.3 - 1.2 - - - - - - -
20/06:00pm 28.2 WNW 9 15 1002.9 - 1.2 - - - - - - -
20/05:30pm 28.2 WNW 9 15 1002.3 - 1.2 - - - - - - -
20/05:00pm 28.1 WNW 9 14 1002.2 - 1.2 - - - - - - -
20/04:30pm 28.0 NW 11 16 1001.7 - 1.2 - - - - - - -
20/04:00pm 27.4 WNW 9 13 1002.3 - 1.2 - - - - - - -
20/03:30pm 27.2 NW 8 11 1002.4 - 1.0 - - - - - - -
20/03:00pm 27.7 WNW 7 11 1002.6 - 0.6 Recent precip. - - - - - -
20/02:30pm 27.7 WNW 7 10 1003.0 - 0.4 - - - - - - -
20/02:00pm 27.5 WNW 4 7 1003.3 - 0.4 - - - - - - -
20/01:30pm 27.6 W 5 8 1003.8 - 0.2 - - - - - - -
20/01:00pm 27.6 W 9 13 1003.6 - 0.0 - - - - - - -
20/12:30pm 28.9 WNW 12 21 1003.8 - 0.0 - - - - - - -
20/12:00pm 30.0 WNW 14 20 1003.7 - 0.0 - - - - - - -
20/11:30am 31.4 WNW 13 19 1003.6 - 0.0 - - - - - - -
20/11:00am 31.4 WNW 12 19 1004.0 - 0.0 - - - - - - -
20/10:30am 31.1 WNW 11 17 1004.3 - 0.0 - - - - - - -
20/10:00am 30.1 WNW 11 17 1004.6 - 0.0 - - - - - - -
20/09:30am 30.4 WNW 9 14 1004.6 - 0.0 - - - - - - -
20/09:00am 29.7 WNW 11 16 1004.5 - 1.0 - - - - - - -
20/08:30am 29.4 WNW 10 15 1004.4 - 1.0 - - - - - - -

Other Formats:

Comma delimited format used in spreadsheet applications
http://www.bom.gov.au/fwo/IDW60701/IDW60701.94200.axf

JavaScript Object Notation format (JSON) in row-major order
http://www.bom.gov.au/fwo/IDW60701/IDW60701.94200.json